createdAt,value
2023-01-18T00:01:13.324Z,50.08
2023-01-18T00:03:42.557Z,48.25
2023-01-18T00:06:14.592Z,47.90
2023-01-18T00:08:43.451Z,45.03
2023-01-18T00:11:13.574Z,46.63
2023-01-18T00:13:42.327Z,50.28
2023-01-18T00:16:16.405Z,48.65
2023-01-18T00:18:45.275Z,47.80
2023-01-18T00:21:13.672Z,46.95
2023-01-18T00:23:42.353Z,42.13
2023-01-18T00:26:12.374Z,40.90
2023-01-18T00:28:41.907Z,47.78
2023-01-18T00:31:13.555Z,36.15
2023-01-18T00:33:43.798Z,37.65
2023-01-18T00:36:13.111Z,39.05
2023-01-18T00:38:41.763Z,41.85
2023-01-18T00:41:10.136Z,43.42
2023-01-18T00:43:40.556Z,34.05
2023-01-18T00:46:11.434Z,29.45
2023-01-18T00:48:42.067Z,33.20
2023-01-18T00:51:12.446Z,28.95
2023-01-18T00:53:41.258Z,31.92
2023-01-18T00:56:10.758Z,32.15
2023-01-18T00:58:39.380Z,33.08
2023-01-18T01:01:09.317Z,34.40
2023-01-18T01:04:04.622Z,41.70
2023-01-18T01:06:47.919Z,32.72
2023-01-18T01:09:18.951Z,31.90
2023-01-18T01:12:01.907Z,36.10
2023-01-18T01:14:47.749Z,27.13
2023-01-18T01:17:33.646Z,33.03
2023-01-18T01:20:19.533Z,30.73
2023-01-18T01:23:06.441Z,32.58
2023-01-18T01:25:54.492Z,36.45
2023-01-18T01:28:22.771Z,35.00
2023-01-18T01:30:52.212Z,30.48
2023-01-18T01:33:20.586Z,31.00
2023-01-18T01:35:49.961Z,30.48
2023-01-18T01:38:19.547Z,31.63
2023-01-18T01:40:57.242Z,32.13
2023-01-18T01:43:44.628Z,26.38
2023-01-18T01:46:26.057Z,25.63
2023-01-18T01:48:58.119Z,26.40
2023-01-18T01:51:26.748Z,28.45
2023-01-18T01:53:59.428Z,27.63
2023-01-18T01:56:28.054Z,27.50
2023-01-18T01:58:58.287Z,19.02
2023-01-18T02:01:27.768Z,22.80
2023-01-18T02:03:57.322Z,19.23
2023-01-18T02:06:31.640Z,17.50
2023-01-18T02:09:02.961Z,20.42
2023-01-18T02:11:31.595Z,19.92
2023-01-18T02:14:02.433Z,24.75
2023-01-18T02:16:42.356Z,21.52
2023-01-18T02:19:22.889Z,22.30
2023-01-18T02:21:54.971Z,25.15
2023-01-18T02:24:58.798Z,25.40
2023-01-18T02:27:29.394Z,24.05
2023-01-18T02:30:08.778Z,23.00
2023-01-18T02:32:52.063Z,20.08
2023-01-18T02:35:26.848Z,22.10
2023-01-18T02:38:04.589Z,22.88
2023-01-18T02:40:36.703Z,24.67
2023-01-18T02:43:23.482Z,20.20
2023-01-18T02:46:10.998Z,20.70
2023-01-18T02:48:42.100Z,20.70
2023-01-18T02:51:10.699Z,24.95
2023-01-18T02:53:42.238Z,22.77
2023-01-18T02:56:13.211Z,19.63
2023-01-18T02:58:44.621Z,23.58
2023-01-18T03:01:17.820Z,25.05
2023-01-18T03:03:49.060Z,24.48
2023-01-18T03:06:17.299Z,24.00
2023-01-18T03:08:47.969Z,25.42
2023-01-18T03:11:19.402Z,24.92
2023-01-18T03:14:02.773Z,29.58
2023-01-18T03:16:41.239Z,27.85
2023-01-18T03:19:31.475Z,29.90
2023-01-18T03:22:00.388Z,27.73
2023-01-18T03:24:29.365Z,29.73
2023-01-18T03:27:17.435Z,26.70
2023-01-18T03:30:04.900Z,29.10
2023-01-18T03:32:52.579Z,26.92
2023-01-18T03:35:27.402Z,27.95
2023-01-18T03:37:57.421Z,26.58
2023-01-18T03:40:28.611Z,28.70
2023-01-18T03:43:01.674Z,28.63
2023-01-18T03:45:33.954Z,29.08
2023-01-18T03:48:04.063Z,26.63
2023-01-18T03:50:37.640Z,25.85
2023-01-18T03:53:09.096Z,26.75
2023-01-18T03:55:41.949Z,23.88
2023-01-18T03:58:12.399Z,24.42
2023-01-18T04:00:41.608Z,24.60
2023-01-18T04:03:11.322Z,23.75
2023-01-18T04:05:40.064Z,28.73
2023-01-18T04:08:09.468Z,26.23
2023-01-18T04:10:38.213Z,26.58
2023-01-18T04:13:06.392Z,26.63
2023-01-18T04:15:34.965Z,23.42
2023-01-18T04:18:03.278Z,23.80
2023-01-18T04:20:33.239Z,23.92
2023-01-18T04:23:01.779Z,28.73
2023-01-18T04:25:30.311Z,28.02
2023-01-18T04:27:58.780Z,29.65
2023-01-18T04:30:27.488Z,39.55
2023-01-18T04:32:55.996Z,27.58
2023-01-18T04:35:24.663Z,24.33
2023-01-18T04:37:54.609Z,24.92
2023-01-18T04:40:23.371Z,24.23
2023-01-18T04:42:54.994Z,25.33
2023-01-18T04:45:23.781Z,25.10
2023-01-18T04:47:52.127Z,20.77
2023-01-18T04:50:20.674Z,19.48
2023-01-18T04:52:48.938Z,21.85
2023-01-18T04:55:18.960Z,22.55
2023-01-18T04:57:47.399Z,18.63
2023-01-18T05:00:16.613Z,21.08
2023-01-18T05:02:44.818Z,18.23
2023-01-18T05:05:14.331Z,20.15
2023-01-18T05:07:42.640Z,18.20
2023-01-18T05:10:13.196Z,19.45
2023-01-18T05:12:43.040Z,19.07
2023-01-18T05:15:12.160Z,20.17
2023-01-18T05:17:42.494Z,16.05
2023-01-18T05:20:12.779Z,16.58
2023-01-18T05:22:41.102Z,17.92
2023-01-18T05:25:10.522Z,14.93
2023-01-18T05:27:39.312Z,14.45
2023-01-18T05:30:11.981Z,14.77
2023-01-18T05:32:40.279Z,15.13
2023-01-18T05:35:09.852Z,14.23
2023-01-18T05:37:38.101Z,16.08
2023-01-18T05:40:09.476Z,15.20
2023-01-18T05:42:38.160Z,15.15
2023-01-18T05:45:10.671Z,16.42
2023-01-18T05:47:39.388Z,15.38
2023-01-18T05:50:08.929Z,13.38
2023-01-18T05:52:37.312Z,14.65
2023-01-18T05:55:06.923Z,12.45
2023-01-18T05:57:35.335Z,13.30
2023-01-18T06:00:05.200Z,16.17
2023-01-18T06:02:34.771Z,16.70
2023-01-18T06:05:03.628Z,15.52
2023-01-18T06:07:32.027Z,14.57
2023-01-18T06:10:00.708Z,21.10
2023-01-18T06:12:29.188Z,19.98
2023-01-18T06:14:57.749Z,17.77
2023-01-18T06:17:26.219Z,13.57
2023-01-18T06:19:56.331Z,13.75
2023-01-18T06:22:24.844Z,11.52
2023-01-18T06:24:53.631Z,11.82
2023-01-18T06:27:22.110Z,13.98
2023-01-18T06:29:51.248Z,11.98
2023-01-18T06:32:19.617Z,11.52
2023-01-18T06:34:48.421Z,11.60
2023-01-18T06:37:18.424Z,14.43
2023-01-18T06:39:47.171Z,14.18
2023-01-18T06:42:15.431Z,11.23
2023-01-18T06:44:44.080Z,13.80
2023-01-18T06:47:12.438Z,10.20
2023-01-18T06:49:41.268Z,11.73
2023-01-18T06:52:09.777Z,12.48
2023-01-18T06:54:39.965Z,15.93
2023-01-18T06:57:08.448Z,14.70
2023-01-18T06:59:37.105Z,19.35
2023-01-18T07:02:06.135Z,17.83
2023-01-18T07:04:38.241Z,16.13
2023-01-18T07:07:06.605Z,14.18
2023-01-18T07:09:35.329Z,15.35
2023-01-18T07:12:05.922Z,14.32
2023-01-18T07:14:34.934Z,18.58
2023-01-18T07:17:03.666Z,16.08
2023-01-18T07:19:32.915Z,14.35
2023-01-18T07:22:01.836Z,19.38
2023-01-18T07:24:30.675Z,21.15
2023-01-18T07:27:00.805Z,20.77
2023-01-18T07:29:31.007Z,32.45
2023-01-18T07:32:01.163Z,26.85
2023-01-18T07:34:29.797Z,17.10
2023-01-18T07:36:58.266Z,26.88
2023-01-18T07:39:26.744Z,18.42
2023-01-18T07:41:55.191Z,23.70
2023-01-18T07:44:23.756Z,24.88
2023-01-18T07:46:53.411Z,30.88
2023-01-18T07:49:22.420Z,21.27
2023-01-18T07:51:50.899Z,42.92
2023-01-18T07:54:19.957Z,32.65
2023-01-18T07:56:48.345Z,25.40
2023-01-18T07:59:17.285Z,20.35
2023-01-18T08:01:45.830Z,24.45
2023-01-18T08:04:15.961Z,16.10
2023-01-18T08:06:44.340Z,18.25
2023-01-18T08:09:13.202Z,12.35
2023-01-18T08:11:41.526Z,9.65
2023-01-18T08:14:10.133Z,13.23
2023-01-18T08:16:38.493Z,14.50
2023-01-18T08:19:07.212Z,13.77
2023-01-18T08:21:37.134Z,12.60
2023-01-18T08:24:06.229Z,14.03
2023-01-18T08:26:35.458Z,9.02
2023-01-18T08:29:04.525Z,8.77
2023-01-18T08:31:33.025Z,12.85
2023-01-18T08:34:03.192Z,13.43
2023-01-18T08:36:32.073Z,12.13
2023-01-18T08:39:02.096Z,9.48
2023-01-18T08:41:30.709Z,9.40
2023-01-18T08:44:00.770Z,20.38
2023-01-18T08:46:29.892Z,16.55
2023-01-18T08:48:59.364Z,17.77
2023-01-18T08:51:28.081Z,16.70
2023-01-18T08:53:57.597Z,14.77
2023-01-18T08:56:28.135Z,12.85
2023-01-18T08:58:57.837Z,9.55
2023-01-18T09:01:26.386Z,16.42
2023-01-18T09:03:55.852Z,11.15
2023-01-18T09:06:25.096Z,11.05
2023-01-18T09:08:54.008Z,11.35
2023-01-18T09:11:22.620Z,11.93
2023-01-18T09:14:02.653Z,10.18
2023-01-18T09:16:32.160Z,13.70
2023-01-18T09:19:01.574Z,9.93
2023-01-18T09:21:30.061Z,12.43
2023-01-18T09:23:59.808Z,12.35
2023-01-18T09:26:30.488Z,14.23
2023-01-18T09:29:00.784Z,18.25
2023-01-18T09:31:30.793Z,22.85
2023-01-18T09:34:17.552Z,32.63
2023-01-18T09:36:47.380Z,37.67
2023-01-18T09:39:16.587Z,51.53
2023-01-18T09:41:47.143Z,37.60
2023-01-18T09:44:22.817Z,23.23
2023-01-18T09:46:55.782Z,20.35
2023-01-18T09:49:30.319Z,21.90
2023-01-18T09:52:13.627Z,17.65
2023-01-18T09:54:45.923Z,15.98
2023-01-18T09:57:21.797Z,17.27
2023-01-18T09:59:56.745Z,21.55
2023-01-18T10:02:28.036Z,22.95
2023-01-18T10:04:58.731Z,21.58
2023-01-18T10:07:29.211Z,18.25
2023-01-18T10:12:34.008Z,23.17
2023-01-18T10:15:10.801Z,17.88
2023-01-18T10:17:41.212Z,17.77
2023-01-18T10:20:17.452Z,18.58
2023-01-18T10:22:50.749Z,17.17
2023-01-18T10:25:36.818Z,20.65
2023-01-18T10:28:24.202Z,20.63
2023-01-18T10:31:04.057Z,20.45
2023-01-18T10:33:35.717Z,17.98
2023-01-18T10:36:10.239Z,20.45
2023-01-18T10:38:42.074Z,20.13
2023-01-18T10:41:19.478Z,22.73
2023-01-18T10:43:47.915Z,26.65
2023-01-18T10:46:20.044Z,28.33
2023-01-18T10:48:50.469Z,30.25
2023-01-18T10:53:55.916Z,27.83
2023-01-18T10:56:26.118Z,28.60
2023-01-18T10:58:57.928Z,32.42
2023-01-18T11:01:29.646Z,35.90
2023-01-18T11:06:29.900Z,29.10
2023-01-18T11:08:58.152Z,30.33
2023-01-18T11:11:46.611Z,29.20
2023-01-18T11:14:27.547Z,32.67
2023-01-18T11:17:02.495Z,41.78
2023-01-18T11:19:31.479Z,45.50
2023-01-18T11:22:00.566Z,35.47
2023-01-18T11:24:30.496Z,43.75
2023-01-18T11:27:01.831Z,34.90
2023-01-18T11:29:31.506Z,39.83
2023-01-18T11:32:05.506Z,37.65
2023-01-18T11:34:35.732Z,41.95
2023-01-18T11:37:05.238Z,43.85
2023-01-18T11:39:35.888Z,36.58
2023-01-18T11:42:26.441Z,31.77
2023-01-18T11:45:15.383Z,33.40
2023-01-18T11:47:54.882Z,32.58
2023-01-18T11:50:29.646Z,37.15
2023-01-18T11:53:03.471Z,39.70
2023-01-18T11:55:35.061Z,32.33
2023-01-18T11:58:05.332Z,41.72
2023-01-18T12:00:53.413Z,48.28
2023-01-18T12:03:40.366Z,48.53
2023-01-18T12:06:15.394Z,43.60
2023-01-18T12:09:00.433Z,42.47
2023-01-18T12:11:45.638Z,40.47
2023-01-18T12:14:32.923Z,36.88
2023-01-18T12:17:14.983Z,37.83
2023-01-18T12:19:56.814Z,41.95
2023-01-18T12:23:16.097Z,40.42
2023-01-18T12:26:11.395Z,43.50
2023-01-18T12:29:00.409Z,44.17
2023-01-18T12:31:44.563Z,43.83
2023-01-18T12:34:18.228Z,48.60
2023-01-18T12:37:11.983Z,47.72
2023-01-18T12:39:57.513Z,50.47
2023-01-18T12:42:36.431Z,51.83
2023-01-18T12:45:15.389Z,51.00
2023-01-18T12:47:49.780Z,53.05
2023-01-18T12:50:24.272Z,56.63
2023-01-18T12:52:59.069Z,58.67
2023-01-18T12:55:29.120Z,52.80
2023-01-18T12:57:59.908Z,52.22
2023-01-18T13:00:35.595Z,54.25
2023-01-18T13:03:07.787Z,43.70
2023-01-18T13:05:44.238Z,48.20
2023-01-18T13:08:17.236Z,48.05
2023-01-18T13:10:46.539Z,46.72
2023-01-18T13:13:28.528Z,50.28
2023-01-18T13:16:02.240Z,107.07
2023-01-18T13:18:35.775Z,64.53
2023-01-18T13:21:11.085Z,49.90
2023-01-18T13:23:48.427Z,46.90
2023-01-18T13:26:24.504Z,49.97
2023-01-18T13:29:18.036Z,51.25
2023-01-18T13:31:47.019Z,47.08
2023-01-18T13:34:30.170Z,47.58
2023-01-18T13:37:13.373Z,43.83
2023-01-18T13:39:48.171Z,42.30
2023-01-18T13:42:35.553Z,45.15
2023-01-18T13:45:19.641Z,43.75
2023-01-18T13:48:00.158Z,39.58
2023-01-18T13:50:48.912Z,42.17
2023-01-18T13:53:48.771Z,43.67
2023-01-18T13:56:29.878Z,42.42
2023-01-18T13:59:01.220Z,40.38
2023-01-18T14:01:33.949Z,43.20
2023-01-18T14:04:24.968Z,41.13
2023-01-18T14:06:54.911Z,39.40
2023-01-18T14:09:36.299Z,38.42
2023-01-18T14:12:07.651Z,38.85
2023-01-18T14:14:37.908Z,41.78
2023-01-18T14:17:08.961Z,40.47
2023-01-18T14:20:08.736Z,36.03
2023-01-18T14:22:48.543Z,36.28
2023-01-18T14:25:34.427Z,38.03
2023-01-18T14:28:09.213Z,36.38
2023-01-18T14:30:39.658Z,37.25
2023-01-18T14:33:15.584Z,36.33
2023-01-18T14:35:52.081Z,37.83
2023-01-18T14:38:21.525Z,36.40
2023-01-18T14:40:51.657Z,34.67
2023-01-18T14:43:27.283Z,29.52
2023-01-18T14:45:59.082Z,33.60
2023-01-18T14:48:30.917Z,33.13
2023-01-18T14:51:00.518Z,30.48
2023-01-18T14:53:30.619Z,29.40
2023-01-18T14:56:08.788Z,28.35
2023-01-18T14:58:41.139Z,25.77
2023-01-18T15:01:24.628Z,26.95
2023-01-18T15:03:56.145Z,26.80
2023-01-18T15:06:34.138Z,26.38
2023-01-18T15:09:03.652Z,26.88
2023-01-18T15:11:32.314Z,28.85
2023-01-18T15:14:02.423Z,31.27
2023-01-18T15:16:31.580Z,26.10
2023-01-18T15:19:02.029Z,28.73
2023-01-18T15:21:32.770Z,25.67
2023-01-18T15:24:05.849Z,31.00
2023-01-18T15:26:41.421Z,29.02
2023-01-18T15:29:17.604Z,28.55
2023-01-18T15:31:51.522Z,29.30
2023-01-18T15:34:25.281Z,28.55
2023-01-18T15:36:53.897Z,28.55
2023-01-18T15:39:22.700Z,24.92
2023-01-18T15:41:51.639Z,26.48
2023-01-18T15:44:35.806Z,30.08
2023-01-18T15:47:04.269Z,28.10
2023-01-18T15:49:32.946Z,29.08
2023-01-18T15:52:03.073Z,27.00
2023-01-18T15:54:32.681Z,36.53
2023-01-18T15:57:12.812Z,29.27
2023-01-18T15:59:43.827Z,37.20
2023-01-18T16:02:18.164Z,33.03
2023-01-18T16:04:47.096Z,36.83
2023-01-18T16:07:25.945Z,29.85
2023-01-18T16:10:10.271Z,27.48
2023-01-18T16:12:38.590Z,29.85
2023-01-18T16:15:27.691Z,27.45
2023-01-18T16:17:59.889Z,25.95
2023-01-18T16:20:29.552Z,51.88
2023-01-18T16:23:06.891Z,42.05
2023-01-18T16:25:35.604Z,42.30
2023-01-18T16:28:04.367Z,28.25
2023-01-18T16:30:39.165Z,24.13
2023-01-18T16:33:10.133Z,25.88
2023-01-18T16:35:39.988Z,21.90
2023-01-18T16:38:12.468Z,21.95
2023-01-18T16:40:44.048Z,23.00
2023-01-18T16:43:22.789Z,22.77
2023-01-18T16:45:54.035Z,24.20
2023-01-18T16:48:23.927Z,25.58
2023-01-18T16:50:53.473Z,33.60
2023-01-18T16:53:21.813Z,30.25
2023-01-18T16:55:50.574Z,35.03
2023-01-18T16:58:21.495Z,25.63
2023-01-18T17:00:55.428Z,25.65
2023-01-18T17:03:24.056Z,22.85
2023-01-18T17:05:52.972Z,28.77
2023-01-18T17:08:21.270Z,23.42
2023-01-18T17:10:51.584Z,21.85
2023-01-18T17:13:20.404Z,27.15
2023-01-18T17:15:49.771Z,22.27
2023-01-18T17:18:22.642Z,26.45
2023-01-18T17:20:52.143Z,24.13
2023-01-18T17:23:21.134Z,29.38
2023-01-18T17:25:50.743Z,26.60
2023-01-18T17:28:20.270Z,28.60
2023-01-18T17:30:50.420Z,37.85
2023-01-18T17:33:22.173Z,30.42
2023-01-18T17:36:05.861Z,25.98
2023-01-18T17:38:34.842Z,23.30
2023-01-18T17:41:03.447Z,21.42
2023-01-18T17:43:34.939Z,21.55
2023-01-18T17:48:34.376Z,21.90
2023-01-18T17:51:02.792Z,18.77
2023-01-18T17:53:31.920Z,19.50
2023-01-18T17:56:00.622Z,19.63
2023-01-18T17:58:29.677Z,20.75
2023-01-18T18:00:58.328Z,22.85
2023-01-18T18:03:27.162Z,22.15
2023-01-18T18:05:59.831Z,24.50
2023-01-18T18:08:28.427Z,25.55
2023-01-18T18:10:56.746Z,19.58
2023-01-18T18:13:25.571Z,25.67
2023-01-18T18:15:55.187Z,18.30
2023-01-18T18:18:26.153Z,18.75
2023-01-18T18:21:02.034Z,30.40
2023-01-18T18:23:31.607Z,33.95
2023-01-18T18:26:00.867Z,25.20
2023-01-18T18:28:30.526Z,30.13
2023-01-18T18:30:59.310Z,26.17
2023-01-18T18:33:29.284Z,26.10
2023-01-18T18:35:58.085Z,29.92
2023-01-18T18:38:28.855Z,26.20
2023-01-18T18:41:03.968Z,33.17
2023-01-18T18:43:33.059Z,28.25
2023-01-18T18:46:01.378Z,32.33
2023-01-18T18:48:30.189Z,26.25
2023-01-18T18:50:58.580Z,26.95
2023-01-18T18:53:37.459Z,22.95
2023-01-18T18:56:09.834Z,26.80
2023-01-18T18:58:39.424Z,27.10
2023-01-18T19:01:09.169Z,24.67
2023-01-18T19:03:40.667Z,25.45
2023-01-18T19:06:09.350Z,21.83
2023-01-18T19:08:39.739Z,25.83
2023-01-18T19:11:08.387Z,26.73
2023-01-18T19:13:37.759Z,29.63
2023-01-18T19:16:07.335Z,27.15
2023-01-18T19:18:36.747Z,28.73
2023-01-18T19:21:06.113Z,29.77
2023-01-18T19:23:35.379Z,30.52
2023-01-18T19:26:05.283Z,31.90
2023-01-18T19:28:34.340Z,27.58
2023-01-18T19:31:04.590Z,29.20
2023-01-18T19:33:34.158Z,29.55
2023-01-18T19:36:09.046Z,28.27
2023-01-18T19:38:45.792Z,33.92
2023-01-18T19:41:17.977Z,32.97
2023-01-18T19:43:50.182Z,28.92
2023-01-18T19:46:20.626Z,30.20
2023-01-18T19:48:50.564Z,31.10
2023-01-18T19:51:23.278Z,33.28
2023-01-18T19:53:55.490Z,25.75
2023-01-18T19:56:25.899Z,27.25
2023-01-18T19:58:54.691Z,23.77
2023-01-18T20:01:35.808Z,27.92
2023-01-18T20:04:07.044Z,30.08
2023-01-18T20:06:37.626Z,29.85
2023-01-18T20:09:17.726Z,33.05
2023-01-18T20:11:48.305Z,31.48
2023-01-18T20:14:18.504Z,25.03
2023-01-18T20:16:47.250Z,54.88
2023-01-18T20:19:17.509Z,33.83
2023-01-18T20:21:46.256Z,28.23
2023-01-18T20:24:16.482Z,36.72
2023-01-18T20:26:45.638Z,45.47
2023-01-18T20:29:16.649Z,47.83
2023-01-18T20:31:50.002Z,81.40
2023-01-18T20:34:19.426Z,37.53
2023-01-18T20:36:50.384Z,52.38
2023-01-18T20:39:19.536Z,90.32
2023-01-18T20:41:50.213Z,40.33
2023-01-18T20:44:20.753Z,37.22
2023-01-18T20:46:51.041Z,37.38
2023-01-18T20:49:22.455Z,38.03
2023-01-18T20:51:53.213Z,36.85
2023-01-18T20:54:22.198Z,40.47
2023-01-18T20:56:50.658Z,43.08
2023-01-18T20:59:21.700Z,38.90
2023-01-18T21:01:50.172Z,32.97
2023-01-18T21:04:20.748Z,34.22
2023-01-18T21:06:50.073Z,37.35
2023-01-18T21:09:19.053Z,34.10
2023-01-18T21:11:47.778Z,33.55
2023-01-18T21:14:16.831Z,32.33
2023-01-18T21:16:47.076Z,35.17
2023-01-18T21:19:15.914Z,34.33
2023-01-18T21:21:44.851Z,29.85
2023-01-18T21:24:13.873Z,28.73
2023-01-18T21:26:42.562Z,31.25
2023-01-18T21:29:11.396Z,33.25
2023-01-18T21:31:41.046Z,31.67
2023-01-18T21:34:11.490Z,29.58
2023-01-18T21:36:39.887Z,35.65
2023-01-18T21:39:11.583Z,35.05
2023-01-18T21:44:43.810Z,32.03
2023-01-18T21:47:12.478Z,37.72
2023-01-18T21:50:21.706Z,36.38
2023-01-18T21:53:07.319Z,36.30
2023-01-18T21:55:37.330Z,36.70
2023-01-18T21:58:26.299Z,48.95
2023-01-18T22:01:00.633Z,37.95
2023-01-18T22:03:29.710Z,39.15
2023-01-18T22:06:02.530Z,35.92
2023-01-18T22:08:30.939Z,37.67
2023-01-18T22:11:00.430Z,40.65
2023-01-18T22:13:29.079Z,33.30
2023-01-18T22:15:57.662Z,42.33
2023-01-18T22:18:25.892Z,34.65
2023-01-18T22:20:57.549Z,32.65
2023-01-18T22:25:55.898Z,40.97
2023-01-18T22:28:24.345Z,68.25
2023-01-18T22:30:52.976Z,27.95
2023-01-18T22:33:21.370Z,42.22
2023-01-18T22:35:50.035Z,28.48
2023-01-18T22:38:18.375Z,24.45
2023-01-18T22:40:48.279Z,26.90
2023-01-18T22:43:18.914Z,25.70
2023-01-18T22:45:55.890Z,25.40
2023-01-18T22:48:24.559Z,27.42
2023-01-18T22:50:53.981Z,23.52
2023-01-18T22:53:22.922Z,24.63
2023-01-18T22:55:52.895Z,24.60
2023-01-18T22:58:21.186Z,27.27
2023-01-18T23:00:50.335Z,27.17
2023-01-18T23:03:18.773Z,24.83
2023-01-18T23:05:54.657Z,31.00
2023-01-18T23:08:24.280Z,27.92
2023-01-18T23:10:58.581Z,26.27
2023-01-18T23:13:26.939Z,28.98
2023-01-18T23:16:12.621Z,25.00
2023-01-18T23:18:40.995Z,34.25
2023-01-18T23:21:09.557Z,36.83
2023-01-18T23:23:40.959Z,33.15
2023-01-18T23:26:11.163Z,32.00
2023-01-18T23:28:45.540Z,29.95
2023-01-18T23:31:15.886Z,29.75
2023-01-18T23:33:44.617Z,32.83
2023-01-18T23:36:13.671Z,26.98
2023-01-18T23:38:59.456Z,24.25
2023-01-18T23:41:46.779Z,25.83
2023-01-18T23:44:33.133Z,30.27
2023-01-18T23:47:19.012Z,41.92
2023-01-18T23:50:04.712Z,50.15
2023-01-18T23:52:51.040Z,49.22
2023-01-18T23:55:19.318Z,40.70
2023-01-18T23:57:49.578Z,39.42
